Time;durP1;ratioP1;P1;durP2;ratioP2;P2;SDS_P1;SDS_P2;PMS_P1;PMS_P2;Temp;Humidity;BMP_temperature;BMP_pressure;BME280_temperature;BME280_humidity;BME280_pressure;Samples;Min_cycle;Max_cycle;Signal;HPM_P1;HPM_P2
2022/08/01 00:00:28;;;;;;;;;;;;;;;21.11;70.26;101531.69;5007304;28;19925;-84
2022/08/01 00:02:53;;;;;;;;;;;;;;;21.09;70.05;101533.66;5012738;28;20212;-85
2022/08/01 00:05:18;;;;;;;;;;;;;;;21.07;71.61;101532.88;5008503;28;19972;-84
2022/08/01 00:07:44;;;;;;;;;;;;;;;21.09;70.56;101533.66;5008110;28;19921;-84
2022/08/01 00:10:14;;;;;;;;;;;;;;;21.08;70.51;101531.94;5009102;28;19918;-84
2022/08/01 00:12:39;;;;;;;;;;;;;;;21.10;70.68;101529.97;5010404;28;19917;-84
2022/08/01 00:15:06;;;;;;;;;;;;;;;21.04;70.82;101534.97;5007431;28;19933;-85
2022/08/01 00:17:31;;;;;;;;;;;;;;;21.02;70.37;101537.75;5006582;28;19933;-84
2022/08/01 00:19:56;;;;;;;;;;;;;;;20.99;70.95;101537.13;5010288;28;19913;-85
2022/08/01 00:22:22;;;;;;;;;;;;;;;20.96;71.14;101543.56;5010486;28;19989;-84
2022/08/01 00:24:47;;;;;;;;;;;;;;;20.95;72.02;101538.31;5011512;28;20468;-84
2022/08/01 00:27:12;;;;;;;;;;;;;;;20.97;70.80;101541.75;5006159;28;20348;-85
2022/08/01 00:29:37;;;;;;;;;;;;;;;21.01;71.63;101540.56;5007799;28;20004;-84
2022/08/01 00:32:03;;;;;;;;;;;;;;;21.00;70.84;101538.84;5006399;28;20353;-84
2022/08/01 00:34:28;;;;;;;;;;;;;;;21.01;70.78;101536.03;5007083;28;19921;-85
2022/08/01 00:36:53;;;;;;;;;;;;;;;21.03;70.38;101547.56;5010373;28;19925;-85
2022/08/01 00:39:18;;;;;;;;;;;;;;;21.00;70.44;101544.22;5009037;28;19917;-84
2022/08/01 00:41:44;;;;;;;;;;;;;;;21.00;70.47;101536.16;5028565;28;20380;-85
2022/08/01 00:44:09;;;;;;;;;;;;;;;20.98;72.31;101543.47;5028107;28;19925;-85
2022/08/01 00:46:34;;;;;;;;;;;;;;;20.96;71.33;101542.72;5024162;28;19921;-85
2022/08/01 00:49:00;;;;;;;;;;;;;;;20.89;70.74;101547.69;5025352;28;19917;-85
2022/08/01 00:51:26;;;;;;;;;;;;;;;20.86;71.43;101548.75;5008398;28;19917;-85
2022/08/01 00:53:51;;;;;;;;;;;;;;;20.88;72.02;101551.34;5023669;28;19998;-85
2022/08/01 00:56:17;;;;;;;;;;;;;;;20.86;71.17;101546.06;5027027;28;19917;-85
2022/08/01 00:58:43;;;;;;;;;;;;;;;20.87;71.50;101546.94;5008222;28;19916;-84
2022/08/01 01:01:08;;;;;;;;;;;;;;;20.86;72.77;101550.59;5024417;28;19928;-84
2022/08/01 01:03:33;;;;;;;;;;;;;;;20.86;72.57;101553.28;5029330;28;20380;-84
2022/08/01 01:05:59;;;;;;;;;;;;;;;20.86;73.29;101559.50;5029569;28;19999;-83
2022/08/01 01:08:27;;;;;;;;;;;;;;;20.84;71.53;101563.28;5027605;28;19972;-83
2022/08/01 01:11:05;;;;;;;;;;;;;;;20.82;72.08;101557.16;5007801;28;20011;-83
2022/08/01 01:13:51;;;;;;;;;;;;;;;20.82;71.19;101563.38;5028110;28;19925;-83
2022/08/01 01:16:18;;;;;;;;;;;;;;;20.79;71.95;101557.38;5022709;28;20411;-83
2022/08/01 01:18:48;;;;;;;;;;;;;;;20.81;71.69;101558.13;5025173;28;19917;-83
2022/08/01 01:21:16;;;;;;;;;;;;;;;20.81;71.10;101555.44;5011624;28;19962;-83
2022/08/01 01:24:00;;;;;;;;;;;;;;;20.83;70.38;101554.34;5025216;28;19998;-83
2022/08/01 01:26:31;;;;;;;;;;;;;;;20.84;71.53;101550.72;5024006;28;19925;-83
2022/08/01 01:29:05;;;;;;;;;;;;;;;20.83;70.54;101548.97;5013061;28;19925;-83
2022/08/01 01:31:35;;;;;;;;;;;;;;;20.87;71.50;101549.63;5025942;28;19987;-83
2022/08/01 01:34:02;;;;;;;;;;;;;;;20.89;70.09;101548.56;5027956;28;20377;-83
2022/08/01 01:36:28;;;;;;;;;;;;;;;20.91;71.30;101543.06;5028322;28;20003;-83
2022/08/01 01:38:54;;;;;;;;;;;;;;;20.89;71.36;101545.00;5010478;28;19925;-83
2022/08/01 01:41:20;;;;;;;;;;;;;;;20.89;70.94;101540.50;5026444;28;19960;-83
2022/08/01 01:43:46;;;;;;;;;;;;;;;20.89;71.37;101543.19;5027973;28;20390;-83
2022/08/01 01:46:15;;;;;;;;;;;;;;;20.86;70.78;101545.22;5008852;28;19928;-82
2022/08/01 01:48:43;;;;;;;;;;;;;;;20.81;71.01;101550.06;5021286;28;19917;-84
2022/08/01 01:51:09;;;;;;;;;;;;;;;20.78;70.48;101548.44;5026151;28;20412;-83
2022/08/01 01:53:35;;;;;;;;;;;;;;;20.78;70.40;101551.13;5027331;28;19940;-83
2022/08/01 01:56:01;;;;;;;;;;;;;;;20.76;70.59;101555.78;5027690;28;20433;-83
2022/08/01 01:58:27;;;;;;;;;;;;;;;20.72;70.96;101546.22;5009605;28;19923;-83
2022/08/01 02:00:54;;;;;;;;;;;;;;;20.71;70.87;101543.66;5008325;28;19917;-84
2022/08/01 02:03:21;;;;;;;;;;;;;;;20.70;70.94;101547.28;5029177;28;20419;-84
2022/08/01 02:05:47;;;;;;;;;;;;;;;20.71;70.59;101538.28;5021645;28;19928;-83
2022/08/01 02:08:15;;;;;;;;;;;;;;;20.75;70.67;101543.31;5024595;28;19925;-83
2022/08/01 02:10:40;;;;;;;;;;;;;;;20.76;71.29;101545.03;5025379;28;20159;-83
2022/08/01 02:13:06;;;;;;;;;;;;;;;20.73;70.85;101541.69;5011211;28;20372;-85
2022/08/01 02:15:33;;;;;;;;;;;;;;;20.72;71.24;101548.03;5026677;28;19921;-83
2022/08/01 02:17:59;;;;;;;;;;;;;;;20.70;70.56;101540.06;5029318;28;20544;-84
2022/08/01 02:20:26;;;;;;;;;;;;;;;20.69;70.57;101538.34;5010341;28;20367;-84
2022/08/01 02:22:53;;;;;;;;;;;;;;;20.70;71.22;101540.06;5027708;28;20505;-84
2022/08/01 02:25:23;;;;;;;;;;;;;;;20.71;70.65;101544.50;5010080;28;19925;-84
2022/08/01 02:28:01;;;;;;;;;;;;;;;20.74;70.35;101551.47;5003482;28;20388;-83
2022/08/01 02:30:30;;;;;;;;;;;;;;;20.73;70.16;101547.06;5024862;28;19925;-83
2022/08/01 02:33:01;;;;;;;;;;;;;;;20.74;71.26;101549.63;5027207;28;20296;-83
2022/08/01 02:35:27;;;;;;;;;;;;;;;20.72;70.43;101540.84;5025859;28;19994;-84
2022/08/01 02:37:53;;;;;;;;;;;;;;;20.73;70.70;101547.94;5025190;28;19940;-84
2022/08/01 02:40:19;;;;;;;;;;;;;;;20.73;70.43;101552.44;5026381;28;19925;-84
2022/08/01 02:42:48;;;;;;;;;;;;;;;20.69;70.35;101557.16;5030377;28;19917;-84
2022/08/01 02:45:14;;;;;;;;;;;;;;;20.70;70.50;101553.50;5008221;28;20077;-83
2022/08/01 02:47:41;;;;;;;;;;;;;;;20.70;70.37;101545.44;5012654;28;19921;-83
2022/08/01 02:50:08;;;;;;;;;;;;;;;20.68;71.02;101541.16;5025608;28;19940;-84
2022/08/01 02:52:34;;;;;;;;;;;;;;;20.67;70.51;101534.94;5009935;28;19921;-84
2022/08/01 02:55:01;;;;;;;;;;;;;;;20.65;70.79;101539.53;5002166;28;20373;-84
2022/08/01 02:57:27;;;;;;;;;;;;;;;20.67;70.29;101543.00;5027507;28;20335;-84
2022/08/01 02:59:53;;;;;;;;;;;;;;;20.68;70.48;101546.53;5007916;28;20006;-83
2022/08/01 03:02:20;;;;;;;;;;;;;;;20.69;70.44;101551.78;5008150;28;19996;-84
2022/08/01 03:04:45;;;;;;;;;;;;;;;20.64;71.03;101548.56;5008583;28;19916;-83
2022/08/01 03:07:11;;;;;;;;;;;;;;;20.63;70.75;101541.50;5009892;28;19970;-83
2022/08/01 03:09:42;;;;;;;;;;;;;;;20.67;70.87;101543.00;5010057;28;19923;-83
2022/08/01 03:12:13;;;;;;;;;;;;;;;20.68;70.64;101544.72;5013916;28;19917;-83
2022/08/01 03:14:39;;;;;;;;;;;;;;;20.68;70.75;101554.59;5026839;28;19972;-84
2022/08/01 03:17:06;;;;;;;;;;;;;;;20.65;70.61;101561.03;5024248;28;19921;-83
2022/08/01 03:19:31;;;;;;;;;;;;;;;20.64;71.06;101545.91;5029542;28;20192;-83
2022/08/01 03:21:58;;;;;;;;;;;;;;;20.63;70.64;101552.25;5031725;28;20328;-83
2022/08/01 03:24:25;;;;;;;;;;;;;;;20.60;70.98;101549.75;5024649;28;20396;-84
2022/08/01 03:26:51;;;;;;;;;;;;;;;20.53;70.74;101553.88;5031388;28;19991;-83
2022/08/01 03:29:19;;;;;;;;;;;;;;;20.53;70.85;101556.56;5030434;28;19932;-83
2022/08/01 03:31:45;;;;;;;;;;;;;;;20.53;71.41;101560.09;5029466;28;20292;-84
2022/08/01 03:34:11;;;;;;;;;;;;;;;20.54;70.92;101555.59;5029007;28;19921;-84
2022/08/01 03:36:44;;;;;;;;;;;;;;;20.56;70.84;101556.31;5014353;28;19971;-84
2022/08/01 03:39:10;;;;;;;;;;;;;;;20.57;70.95;101556.22;5032298;28;19944;-84
2022/08/01 03:41:39;;;;;;;;;;;;;;;20.60;71.38;101568.56;5013239;28;20403;-84
2022/08/01 03:44:07;;;;;;;;;;;;;;;20.60;70.92;101564.06;5029687;28;20312;-84
2022/08/01 03:46:35;;;;;;;;;;;;;;;20.57;71.82;101568.81;5031225;28;19956;-84
2022/08/01 03:49:03;;;;;;;;;;;;;;;20.56;71.13;101557.22;5030275;28;20388;-84
2022/08/01 03:51:29;;;;;;;;;;;;;;;20.59;70.93;101566.84;5013821;28;19917;-83
2022/08/01 03:53:55;;;;;;;;;;;;;;;20.60;71.31;101568.56;5028232;28;19921;-84
2022/08/01 03:56:21;;;;;;;;;;;;;;;20.60;71.08;101569.44;5030358;28;20032;-84
2022/08/01 03:58:46;;;;;;;;;;;;;;;20.59;71.94;101566.84;5014198;28;19917;-83
2022/08/01 04:01:12;;;;;;;;;;;;;;;20.57;72.11;101558.91;5025659;28;19948;-84
2022/08/01 04:03:37;;;;;;;;;;;;;;;20.56;71.25;101562.56;5027184;28;20414;-84
2022/08/01 04:06:03;;;;;;;;;;;;;;;20.54;71.03;101560.94;5030275;28;19917;-84
2022/08/01 04:08:35;;;;;;;;;;;;;;;20.53;71.17;101567.31;5031926;28;19927;-84
2022/08/01 04:11:01;;;;;;;;;;;;;;;20.49;71.33;101565.78;5029991;28;19971;-83
2022/08/01 04:13:26;;;;;;;;;;;;;;;20.48;71.29;101564.09;5026158;28;20351;-84
2022/08/01 04:15:51;;;;;;;;;;;;;;;20.46;71.36;101569.50;5026167;28;19956;-84
2022/08/01 04:18:17;;;;;;;;;;;;;;;20.44;71.54;101563.41;5030233;28;20043;-83
2022/08/01 04:20:42;;;;;;;;;;;;;;;20.42;71.46;101576.06;5025484;28;20487;-84
2022/08/01 04:23:07;;;;;;;;;;;;;;;20.40;72.10;101580.69;5031737;28;19917;-83
2022/08/01 04:25:34;;;;;;;;;;;;;;;20.38;71.65;101582.63;5022423;28;20447;-84
2022/08/01 04:28:00;;;;;;;;;;;;;;;20.41;70.87;101585.09;5013423;28;19917;-84
2022/08/01 04:30:27;;;;;;;;;;;;;;;20.45;71.35;101588.44;5026328;28;20067;-84
2022/08/01 04:32:54;;;;;;;;;;;;;;;20.47;71.27;101575.72;5029997;28;19921;-83
2022/08/01 04:35:19;;;;;;;;;;;;;;;20.46;70.72;101588.31;5027388;28;19925;-83
2022/08/01 04:37:48;;;;;;;;;;;;;;;20.45;70.69;101577.69;5012547;28;19924;-83
2022/08/01 04:40:14;;;;;;;;;;;;;;;20.36;71.19;101582.72;5011962;28;20020;-83
2022/08/01 04:42:40;;;;;;;;;;;;;;;20.29;70.47;101584.13;5011843;28;19927;-83
2022/08/01 04:45:08;;;;;;;;;;;;;;;20.29;70.32;101591.31;5028131;28;19913;-84
2022/08/01 04:47:34;;;;;;;;;;;;;;;20.25;70.51;101590.69;5035267;28;20078;-83
2022/08/01 04:49:59;;;;;;;;;;;;;;;20.25;70.89;101595.19;5018960;28;20586;-83
2022/08/01 04:52:32;;;;;;;;;;;;;;;20.25;71.08;101595.19;5024222;28;20402;-83
2022/08/01 04:54:57;;;;;;;;;;;;;;;20.23;70.96;101592.59;5025262;28;19929;-83
2022/08/01 04:57:22;;;;;;;;;;;;;;;20.21;70.93;101599.03;5005444;28;19935;-84
2022/08/01 04:59:49;;;;;;;;;;;;;;;20.24;71.14;101598.84;5007317;28;20257;-83
2022/08/01 05:02:16;;;;;;;;;;;;;;;20.27;70.80;101607.53;5028308;28;19971;-83
2022/08/01 05:04:42;;;;;;;;;;;;;;;20.25;71.27;101609.47;5011270;28;20443;-83
2022/08/01 05:07:07;;;;;;;;;;;;;;;20.28;70.52;101611.06;5007653;28;20000;-84
2022/08/01 05:09:33;;;;;;;;;;;;;;;20.19;71.89;101604.53;5028628;28;19913;-84
2022/08/01 05:11:58;;;;;;;;;;;;;;;20.26;71.28;101608.50;5028557;28;19927;-83
2022/08/01 05:14:27;;;;;;;;;;;;;;;20.32;71.54;101609.91;5029928;28;19917;-84
2022/08/01 05:16:53;;;;;;;;;;;;;;;20.43;71.51;101617.22;5013727;28;19924;-84
2022/08/01 05:19:19;;;;;;;;;;;;;;;20.54;71.13;101626.28;5027318;28;19913;-84
2022/08/01 05:21:44;;;;;;;;;;;;;;;20.63;71.19;101624.78;5028115;28;19917;-84
2022/08/01 05:24:09;;;;;;;;;;;;;;;20.70;70.47;101612.63;5028565;28;19925;-83
2022/08/01 05:26:35;;;;;;;;;;;;;;;20.69;70.59;101618.13;5027052;28;19921;-84
2022/08/01 05:29:01;;;;;;;;;;;;;;;20.63;70.82;101620.28;5024136;28;19944;-84
2022/08/01 05:31:26;;;;;;;;;;;;;;;20.63;70.43;101622.97;5017338;28;20389;-84
2022/08/01 05:33:51;;;;;;;;;;;;;;;20.69;71.02;101621.66;5026170;28;19929;-84
2022/08/01 05:36:16;;;;;;;;;;;;;;;20.71;70.47;101625.13;5025975;28;20453;-84
2022/08/01 05:38:41;;;;;;;;;;;;;;;20.75;70.58;101625.75;5028941;28;19976;-84
2022/08/01 05:41:06;;;;;;;;;;;;;;;20.79;70.32;101625.41;5026572;28;20396;-84
2022/08/01 05:43:32;;;;;;;;;;;;;;;20.86;70.38;101625.84;5031049;28;19963;-84
2022/08/01 05:45:58;;;;;;;;;;;;;;;20.83;70.04;101628.75;5026109;28;19931;-85
2022/08/01 05:48:23;;;;;;;;;;;;;;;20.88;70.06;101618.53;5010943;28;20372;-84
2022/08/01 05:50:49;;;;;;;;;;;;;;;21.01;69.69;101615.84;5011463;28;21499;-84
2022/08/01 05:53:14;;;;;;;;;;;;;;;21.08;69.72;101612.59;5028625;28;19933;-84
2022/08/01 05:55:39;;;;;;;;;;;;;;;21.17;70.33;101612.88;5026606;28;19925;-85
2022/08/01 05:58:05;;;;;;;;;;;;;;;21.17;70.20;101615.56;5028332;28;19967;-84
2022/08/01 06:00:30;;;;;;;;;;;;;;;21.14;69.47;101622.06;5026198;28;20296;-85
2022/08/01 06:02:55;;;;;;;;;;;;;;;21.15;69.96;101621.06;5027340;28;19975;-84
2022/08/01 06:05:20;;;;;;;;;;;;;;;21.22;69.42;101622.38;5025908;28;19925;-84
2022/08/01 06:07:45;;;;;;;;;;;;;;;21.29;68.77;101629.00;5002711;28;20355;-85
2022/08/01 06:10:11;;;;;;;;;;;;;;;21.26;69.06;101631.91;5021382;28;19925;-86
2022/08/01 06:12:36;;;;;;;;;;;;;;;21.23;69.88;101626.75;5023372;28;19960;-84
2022/08/01 06:15:02;;;;;;;;;;;;;;;21.22;69.40;101637.66;5022220;28;19925;-86
2022/08/01 06:17:27;;;;;;;;;;;;;;;21.23;69.03;101633.97;5026744;28;19920;-85
2022/08/01 06:19:52;;;;;;;;;;;;;;;21.24;69.41;101635.69;5027772;28;19928;-85
2022/08/01 06:22:17;;;;;;;;;;;;;;;21.25;68.96;101627.50;5025634;28;19924;-84
2022/08/01 06:24:43;;;;;;;;;;;;;;;21.18;69.00;101631.63;5011606;28;19925;-84
2022/08/01 06:27:08;;;;;;;;;;;;;;;21.15;69.17;101635.38;5027373;28;19917;-84
2022/08/01 06:29:34;;;;;;;;;;;;;;;21.14;69.33;101643.56;5027612;28;20011;-85
2022/08/01 06:31:59;;;;;;;;;;;;;;;21.18;68.98;101639.69;5021525;28;19924;-84
2022/08/01 06:34:25;;;;;;;;;;;;;;;21.31;68.74;101639.66;5029693;28;19921;-84
2022/08/01 06:36:50;;;;;;;;;;;;;;;21.32;69.08;101639.59;4999592;28;19921;-84
2022/08/01 06:39:15;;;;;;;;;;;;;;;21.34;68.77;101645.69;5027484;28;20281;-84
2022/08/01 06:41:46;;;;;;;;;;;;;;;21.35;68.45;101646.56;5017153;28;20443;-85
2022/08/01 06:44:11;;;;;;;;;;;;;;;21.40;69.22;101652.44;5019878;28;19917;-85
2022/08/01 06:46:36;;;;;;;;;;;;;;;21.36;68.42;101642.91;5026636;28;19924;-85
2022/08/01 06:49:01;;;;;;;;;;;;;;;21.43;69.08;101643.31;5025829;28;19925;-85
2022/08/01 06:51:27;;;;;;;;;;;;;;;21.51;68.75;101651.69;5006302;28;19919;-84
2022/08/01 06:53:53;;;;;;;;;;;;;;;21.63;67.96;101651.63;5026932;28;19921;-85
2022/08/01 06:56:18;;;;;;;;;;;;;;;21.74;67.99;101658.94;5024101;28;19917;-85
2022/08/01 06:58:43;;;;;;;;;;;;;;;21.92;68.34;101654.00;5027875;28;19979;-85
2022/08/01 07:01:09;;;;;;;;;;;;;;;22.08;67.87;101662.63;5023664;28;20380;-85
2022/08/01 07:03:34;;;;;;;;;;;;;;;22.13;67.14;101656.94;5028078;28;19944;-85
2022/08/01 07:06:00;;;;;;;;;;;;;;;22.19;67.18;101656.44;5024661;28;19939;-84
2022/08/01 07:08:25;;;;;;;;;;;;;;;22.28;66.97;101655.75;5022920;28;20021;-84
2022/08/01 07:10:50;;;;;;;;;;;;;;;22.20;66.72;101658.19;5026992;28;20411;-85
2022/08/01 07:13:20;;;;;;;;;;;;;;;22.17;67.01;101654.88;5024075;28;19924;-84
2022/08/01 07:15:45;;;;;;;;;;;;;;;22.13;66.89;101656.94;5006388;28;19921;-85
2022/08/01 07:18:10;;;;;;;;;;;;;;;22.12;66.75;101653.38;5026440;28;19924;-85
2022/08/01 07:20:37;;;;;;;;;;;;;;;22.14;66.83;101651.41;5021587;28;19972;-84
2022/08/01 07:23:02;;;;;;;;;;;;;;;22.27;66.76;101654.03;5009155;28;20395;-85
2022/08/01 07:25:27;;;;;;;;;;;;;;;22.43;66.08;101659.13;5027145;28;19918;-84
2022/08/01 07:27:52;;;;;;;;;;;;;;;22.55;65.93;101655.47;5009085;28;20099;-84
2022/08/01 07:30:18;;;;;;;;;;;;;;;22.66;66.28;101658.19;5010664;28;20369;-84
2022/08/01 07:32:43;;;;;;;;;;;;;;;22.86;65.74;101662.03;5017960;28;19967;-84
2022/08/01 07:35:08;;;;;;;;;;;;;;;23.19;65.39;101659.50;5010202;28;19991;-84
2022/08/01 07:37:33;;;;;;;;;;;;;;;23.67;64.94;101662.75;5025591;28;19972;-85
2022/08/01 07:39:59;;;;;;;;;;;;;;;24.07;63.61;101671.09;5021679;28;19925;-84
2022/08/01 07:42:24;;;;;;;;;;;;;;;24.04;62.78;101663.25;5019505;28;19927;-83
2022/08/01 07:44:49;;;;;;;;;;;;;;;23.90;63.09;101661.69;5021531;28;19924;-84
2022/08/01 07:47:15;;;;;;;;;;;;;;;23.83;63.03;101674.03;5021755;28;20635;-84
2022/08/01 07:49:40;;;;;;;;;;;;;;;23.83;63.08;101675.88;5024166;28;19952;-84
2022/08/01 07:52:06;;;;;;;;;;;;;;;23.85;63.07;101673.88;5027097;28;20004;-84
2022/08/01 07:54:31;;;;;;;;;;;;;;;23.91;62.50;101662.56;5028002;28;19925;-84
2022/08/01 07:56:57;;;;;;;;;;;;;;;24.14;61.98;101682.25;5027685;28;19975;-83
2022/08/01 07:59:23;;;;;;;;;;;;;;;24.24;61.50;101677.75;5030922;28;19928;-83
2022/08/01 08:01:50;;;;;;;;;;;;;;;24.52;61.24;101679.00;5025709;28;19978;-84
2022/08/01 08:04:15;;;;;;;;;;;;;;;25.07;59.91;101681.47;5013642;28;19921;-83
2022/08/01 08:06:41;;;;;;;;;;;;;;;25.42;58.61;101672.97;5026522;28;19924;-84
2022/08/01 08:09:06;;;;;;;;;;;;;;;25.39;58.79;101679.50;5030108;28;19917;-84
2022/08/01 08:11:31;;;;;;;;;;;;;;;25.62;57.89;101672.00;5027850;28;19913;-84
2022/08/01 08:13:57;;;;;;;;;;;;;;;26.16;58.12;101669.78;5009122;28;19928;-85
2022/08/01 08:16:22;;;;;;;;;;;;;;;26.54;56.16;101677.09;5034222;28;19924;-84
2022/08/01 08:18:47;;;;;;;;;;;;;;;26.41;56.08;101681.94;5027103;28;19921;-84
2022/08/01 08:21:13;;;;;;;;;;;;;;;26.32;56.25;101683.66;5024353;28;20080;-85
2022/08/01 08:26:23;;;;;;;;;;;;;;;26.37;55.77;101681.34;5029370;28;20331;-85
2022/08/01 08:28:48;;;;;;;;;;;;;;;26.73;55.26;101678.91;5023726;28;19928;-85
2022/08/01 08:31:13;;;;;;;;;;;;;;;26.93;55.08;101679.72;5009837;28;19921;-85
2022/08/01 08:33:39;;;;;;;;;;;;;;;27.21;54.52;101683.34;5025561;28;19956;-84
2022/08/01 08:36:04;;;;;;;;;;;;;;;27.87;51.87;101677.69;5028291;28;20009;-87
2022/08/01 08:38:29;;;;;;;;;;;;;;;28.28;50.87;101675.38;5009048;28;19928;-86
2022/08/01 08:40:55;;;;;;;;;;;;;;;28.47;50.52;101686.09;5029368;28;19948;-86
2022/08/01 08:43:21;;;;;;;;;;;;;;;28.69;49.61;101689.34;5023930;28;20397;-85
2022/08/01 08:45:46;;;;;;;;;;;;;;;27.98;50.64;101682.06;5031475;28;19917;-85
2022/08/01 08:48:12;;;;;;;;;;;;;;;27.88;51.23;101681.25;5030728;28;19990;-86
2022/08/01 08:50:38;;;;;;;;;;;;;;;29.08;49.19;101686.19;5023424;28;19999;-85
2022/08/01 08:53:04;;;;;;;;;;;;;;;29.85;48.08;101687.88;5023087;28;20023;-85
2022/08/01 08:55:29;;;;;;;;;;;;;;;30.60;45.57;101681.47;5028170;28;20389;-85
2022/08/01 08:57:55;;;;;;;;;;;;;;;30.89;44.56;101684.50;5007049;28;19928;-85
2022/08/01 09:00:20;;;;;;;;;;;;;;;30.59;44.63;101674.28;5026139;28;20282;-85
2022/08/01 09:02:46;;;;;;;;;;;;;;;30.25;45.96;101680.78;5024173;28;19932;-84
2022/08/01 09:05:12;;;;;;;;;;;;;;;30.42;44.57;101678.94;5025524;28;20007;-85
2022/08/01 09:07:37;;;;;;;;;;;;;;;30.59;44.05;101686.09;5025903;28;19921;-85
2022/08/01 09:10:03;;;;;;;;;;;;;;;31.28;43.36;101691.06;5027266;28;19921;-85
2022/08/01 09:12:28;;;;;;;;;;;;;;;31.76;41.88;101684.53;5025564;28;19918;-85
2022/08/01 09:14:53;;;;;;;;;;;;;;;31.61;42.16;101687.16;5027687;28;19971;-85
2022/08/01 09:17:19;;;;;;;;;;;;;;;30.89;42.85;101689.97;5024973;28;19921;-85
2022/08/01 09:19:47;;;;;;;;;;;;;;;30.83;42.48;101698.03;5028718;28;19917;-86
2022/08/01 09:22:14;;;;;;;;;;;;;;;30.14;44.36;101698.34;5021565;28;19921;-85
2022/08/01 09:24:40;;;;;;;;;;;;;;;29.45;46.17;101692.16;5028254;28;19923;-85
2022/08/01 09:27:16;;;;;;;;;;;;;;;28.81;47.00;101695.34;5009737;28;19953;-85
2022/08/01 09:29:44;;;;;;;;;;;;;;;28.20;47.89;101699.75;5024340;28;19917;-85
2022/08/01 09:32:09;;;;;;;;;;;;;;;28.91;47.94;101704.25;5022016;28;20003;-86
2022/08/01 09:34:35;;;;;;;;;;;;;;;29.86;43.93;101710.53;5025299;28;20340;-85
2022/08/01 09:37:01;;;;;;;;;;;;;;;30.32;44.20;101703.66;5027571;28;19917;-85
2022/08/01 09:39:27;;;;;;;;;;;;;;;30.88;41.72;101704.66;5026260;28;20149;-86
2022/08/01 09:41:54;;;;;;;;;;;;;;;31.30;42.83;101702.69;5028552;28;20071;-85
2022/08/01 09:44:20;;;;;;;;;;;;;;;31.41;41.67;101705.03;5026590;28;19917;-87
2022/08/01 09:46:49;;;;;;;;;;;;;;;31.04;40.04;101709.22;5017975;28;20403;-85
2022/08/01 09:49:14;;;;;;;;;;;;;;;30.74;42.97;101700.75;5008261;28;19926;-86
2022/08/01 09:51:39;;;;;;;;;;;;;;;30.65;43.00;101704.50;5027731;28;19921;-85
2022/08/01 09:54:05;;;;;;;;;;;;;;;30.57;43.15;101709.94;5029609;28;19921;-86
2022/08/01 09:56:38;;;;;;;;;;;;;;;30.17;44.39;101711.66;5025476;28;19914;-87
2022/08/01 09:59:04;;;;;;;;;;;;;;;29.72;45.18;101714.75;5024116;28;19932;-85
2022/08/01 10:01:41;;;;;;;;;;;;;;;29.41;45.20;101720.72;5024561;28;20280;-85
2022/08/01 10:04:09;;;;;;;;;;;;;;;29.42;45.17;101730.59;5010423;28;20019;-85
2022/08/01 10:06:35;;;;;;;;;;;;;;;29.52;45.72;101724.19;5001874;28;20299;-86
2022/08/01 10:09:00;;;;;;;;;;;;;;;29.46;45.56;101715.66;5026089;28;19917;-85
2022/08/01 10:11:26;;;;;;;;;;;;;;;29.42;45.77;101710.69;5027499;28;19939;-85
2022/08/01 10:13:52;;;;;;;;;;;;;;;29.37;46.02;101719.34;5027608;28;19921;-86
2022/08/01 10:16:17;;;;;;;;;;;;;;;29.25;46.12;101714.38;5021026;28;19925;-85
2022/08/01 10:18:44;;;;;;;;;;;;;;;29.02;46.25;101716.81;5023524;28;19932;-85
2022/08/01 10:21:10;;;;;;;;;;;;;;;28.78;46.93;101721.03;5024194;28;20020;-86
2022/08/01 10:23:36;;;;;;;;;;;;;;;28.68;47.00;101718.41;5025300;28;19992;-86
2022/08/01 10:26:03;;;;;;;;;;;;;;;29.23;45.86;101720.81;5024204;28;20000;-86
2022/08/01 10:28:30;;;;;;;;;;;;;;;29.91;44.82;101717.19;5023865;28;20295;-85
2022/08/01 10:30:56;;;;;;;;;;;;;;;29.64;43.87;101723.75;5032440;28;19925;-86
2022/08/01 10:33:22;;;;;;;;;;;;;;;29.22;45.23;101730.00;5027690;28;19921;-86
2022/08/01 10:35:47;;;;;;;;;;;;;;;29.30;44.74;101729.22;5027096;28;19917;-86
2022/08/01 10:38:12;;;;;;;;;;;;;;;29.70;45.07;101723.13;5005039;28;19932;-85
2022/08/01 10:40:39;;;;;;;;;;;;;;;29.71;43.38;101715.78;5020158;28;19929;-85
2022/08/01 10:43:04;;;;;;;;;;;;;;;29.47;44.81;101724.66;5025080;28;20432;-86
2022/08/01 10:45:30;;;;;;;;;;;;;;;29.04;44.16;101722.94;5025150;28;20052;-85
2022/08/01 10:47:55;;;;;;;;;;;;;;;28.85;46.51;101726.69;5023453;28;20293;-85
2022/08/01 10:50:39;;;;;;;;;;;;;;;28.67;46.87;101727.56;5020455;28;20235;-86
2022/08/01 10:53:09;;;;;;;;;;;;;;;28.15;46.41;101729.28;5021207;28;19924;-85
2022/08/01 10:55:51;;;;;;;;;;;;;;;27.67;47.79;101727.72;5033002;28;19929;-84
2022/08/01 10:58:20;;;;;;;;;;;;;;;27.00;48.94;101734.25;5026395;28;20000;-84
2022/08/01 11:00:45;;;;;;;;;;;;;;;26.54;49.75;101733.19;5026077;28;19924;-85
2022/08/01 11:03:10;;;;;;;;;;;;;;;26.63;49.66;101735.91;5022288;28;20431;-85
2022/08/01 11:05:36;;;;;;;;;;;;;;;26.86;52.21;101746.41;5026471;28;20364;-86
2022/08/01 11:08:03;;;;;;;;;;;;;;;27.25;52.30;101747.22;5027402;28;20589;-85
2022/08/01 11:10:37;;;;;;;;;;;;;;;27.55;52.99;101742.50;5032658;28;19913;-85
2022/08/01 11:13:05;;;;;;;;;;;;;;;27.96;50.99;101742.00;5023720;28;19925;-84
2022/08/01 11:15:30;;;;;;;;;;;;;;;28.40;49.35;101749.47;5023960;28;20299;-85
2022/08/01 11:17:56;;;;;;;;;;;;;;;28.65;46.99;101754.09;5025813;28;20273;-85
2022/08/01 11:20:32;;;;;;;;;;;;;;;28.59;46.48;101762.06;5013999;28;19924;-86
2022/08/01 11:23:00;;;;;;;;;;;;;;;28.44;46.95;101762.56;5018389;28;19979;-85
2022/08/01 11:25:26;;;;;;;;;;;;;;;28.55;45.52;101757.94;5028431;28;19921;-86
2022/08/01 11:28:10;;;;;;;;;;;;;;;28.95;44.70;101762.84;5022200;28;19940;-85
2022/08/01 11:30:36;;;;;;;;;;;;;;;29.06;45.45;101759.88;5026604;28;19920;-85
2022/08/01 11:33:01;;;;;;;;;;;;;;;29.17;44.94;101761.47;5012895;28;19932;-84
2022/08/01 11:35:27;;;;;;;;;;;;;;;29.32;42.43;101761.72;5030664;28;19928;-85
2022/08/01 11:37:55;;;;;;;;;;;;;;;29.72;44.37;101772.00;5031171;28;20304;-85
2022/08/01 11:40:25;;;;;;;;;;;;;;;29.98;43.02;101764.59;5030989;28;20784;-85
2022/08/01 11:43:10;;;;;;;;;;;;;;;30.35;41.53;101766.06;5029600;28;19923;-86
2022/08/01 11:45:52;;;;;;;;;;;;;;;30.68;39.70;101766.94;5028794;28;19967;-84
2022/08/01 11:48:25;;;;;;;;;;;;;;;30.60;38.93;101766.09;5035100;28;19978;-84
2022/08/01 11:50:51;;;;;;;;;;;;;;;30.65;40.08;101766.44;5039999;28;20609;-84
2022/08/01 11:53:18;;;;;;;;;;;;;;;30.88;38.98;101753.81;5027779;28;19948;-85
2022/08/01 11:55:53;;;;;;;;;;;;;;;31.12;38.49;101763.00;5025515;28;19995;-85
2022/08/01 11:58:22;;;;;;;;;;;;;;;31.38;38.61;101757.31;5028275;28;19914;-85
2022/08/01 12:00:51;;;;;;;;;;;;;;;31.57;39.50;101758.75;5029275;28;20257;-85
2022/08/01 12:03:16;;;;;;;;;;;;;;;31.71;39.29;101758.03;5028834;28;19921;-85
2022/08/01 12:05:43;;;;;;;;;;;;;;;31.57;40.31;101765.13;5028375;28;20291;-85
2022/08/01 12:08:08;;;;;;;;;;;;;;;31.25;41.26;101774.25;5031723;28;20356;-85
2022/08/01 12:10:37;;;;;;;;;;;;;;;31.04;40.81;101761.13;5027824;28;20012;-85
2022/08/01 12:13:03;;;;;;;;;;;;;;;30.74;39.44;101769.00;5027477;28;19921;-85
2022/08/01 12:15:30;;;;;;;;;;;;;;;30.69;40.27;101773.25;5014342;28;19928;-85
2022/08/01 12:17:57;;;;;;;;;;;;;;;30.72;41.25;101778.38;5026088;28;19925;-85
2022/08/01 12:20:23;;;;;;;;;;;;;;;30.87;38.56;101770.34;5024753;28;19917;-85
2022/08/01 12:22:55;;;;;;;;;;;;;;;30.84;39.65;101771.56;5028029;28;20380;-85
2022/08/01 12:25:20;;;;;;;;;;;;;;;30.90;40.27;101775.47;5012990;28;20314;-84
2022/08/01 12:27:46;;;;;;;;;;;;;;;30.92;40.20;101773.44;5027570;28;20019;-84
2022/08/01 12:30:24;;;;;;;;;;;;;;;30.92;38.79;101766.09;5028077;28;20321;-84
2022/08/01 12:32:50;;;;;;;;;;;;;;;30.68;40.27;101782.44;5011577;28;19917;-84
2022/08/01 12:35:22;;;;;;;;;;;;;;;30.30;39.67;101776.63;5026850;28;19928;-84